sensor_id;sensor_type;location;lat;lon;timestamp;pressure;altitude;pressure_sealevel;temperature;humidity
30875;BME280;17581;43.222;27.924;2024-03-02T00:01:20;100585.63;;;11.45;82.23
30875;BME280;17581;43.222;27.924;2024-03-02T00:03:46;100587.78;;;11.51;82.40
30875;BME280;17581;43.222;27.924;2024-03-02T00:06:11;100590.50;;;11.51;82.48
30875;BME280;17581;43.222;27.924;2024-03-02T00:08:37;100591.09;;;11.55;82.49
30875;BME280;17581;43.222;27.924;2024-03-02T00:11:03;100591.94;;;11.55;82.07
30875;BME280;17581;43.222;27.924;2024-03-02T00:13:29;100575.44;;;11.48;81.98
30875;BME280;17581;43.222;27.924;2024-03-02T00:15:56;100576.91;;;11.53;81.73
30875;BME280;17581;43.222;27.924;2024-03-02T00:18:30;100583.66;;;11.47;81.42
30875;BME280;17581;43.222;27.924;2024-03-02T00:20:56;100588.84;;;11.39;82.28
30875;BME280;17581;43.222;27.924;2024-03-02T00:23:22;100586.16;;;11.39;82.60
30875;BME280;17581;43.222;27.924;2024-03-02T00:25:53;100577.81;;;11.42;82.57
30875;BME280;17581;43.222;27.924;2024-03-02T00:28:25;100576.84;;;11.43;82.60
30875;BME280;17581;43.222;27.924;2024-03-02T00:30:55;100576.56;;;11.46;82.35
30875;BME280;17581;43.222;27.924;2024-03-02T00:33:26;100570.59;;;11.42;82.47
30875;BME280;17581;43.222;27.924;2024-03-02T00:35:53;100568.53;;;11.35;83.17
30875;BME280;17581;43.222;27.924;2024-03-02T00:38:18;100568.53;;;11.35;82.36
30875;BME280;17581;43.222;27.924;2024-03-02T00:40:44;100567.94;;;11.31;83.23
30875;BME280;17581;43.222;27.924;2024-03-02T00:46:06;100532.75;;;11.23;82.95
30875;BME280;17581;43.222;27.924;2024-03-02T00:48:32;100538.41;;;11.20;83.10
30875;BME280;17581;43.222;27.924;2024-03-02T00:51:01;100518.00;;;11.18;83.78
30875;BME280;17581;43.222;27.924;2024-03-02T00:53:29;100528.94;;;11.26;83.27
30875;BME280;17581;43.222;27.924;2024-03-02T00:55:56;100532.38;;;11.28;83.19
30875;BME280;17581;43.222;27.924;2024-03-02T00:58:22;100516.88;;;11.20;83.21
30875;BME280;17581;43.222;27.924;2024-03-02T01:00:47;100526.59;;;11.12;83.68
30875;BME280;17581;43.222;27.924;2024-03-02T01:03:13;100536.66;;;11.10;84.27
30875;BME280;17581;43.222;27.924;2024-03-02T01:05:41;100518.63;;;10.89;84.28
30875;BME280;17581;43.222;27.924;2024-03-02T01:08:08;100534.25;;;10.96;85.29
30875;BME280;17581;43.222;27.924;2024-03-02T01:10:33;100537.47;;;10.89;85.05
30875;BME280;17581;43.222;27.924;2024-03-02T01:12:58;100525.06;;;10.98;85.51
30875;BME280;17581;43.222;27.924;2024-03-02T01:15:24;100526.69;;;10.89;85.66
30875;BME280;17581;43.222;27.924;2024-03-02T01:17:49;100514.44;;;10.97;85.78
30875;BME280;17581;43.222;27.924;2024-03-02T01:20:15;100518.25;;;10.94;85.84
30875;BME280;17581;43.222;27.924;2024-03-02T01:22:40;100505.41;;;10.98;85.85
30875;BME280;17581;43.222;27.924;2024-03-02T01:25:06;100506.53;;;10.84;86.09
30875;BME280;17581;43.222;27.924;2024-03-02T01:27:33;100509.31;;;10.93;86.18
30875;BME280;17581;43.222;27.924;2024-03-02T01:29:59;100498.59;;;10.82;86.59
30875;BME280;17581;43.222;27.924;2024-03-02T01:32:25;100497.09;;;10.89;86.88
30875;BME280;17581;43.222;27.924;2024-03-02T01:34:50;100489.78;;;10.91;86.86
30875;BME280;17581;43.222;27.924;2024-03-02T01:37:16;100490.47;;;10.93;86.25
30875;BME280;17581;43.222;27.924;2024-03-02T01:39:41;100477.88;;;10.94;86.27
30875;BME280;17581;43.222;27.924;2024-03-02T01:42:07;100471.75;;;10.92;86.25
30875;BME280;17581;43.222;27.924;2024-03-02T01:44:32;100477.94;;;10.83;86.49
30875;BME280;17581;43.222;27.924;2024-03-02T01:46:58;100498.56;;;10.62;87.95
30875;BME280;17581;43.222;27.924;2024-03-02T01:49:23;100512.41;;;10.57;88.26
30875;BME280;17581;43.222;27.924;2024-03-02T01:51:49;100499.94;;;10.56;88.59
30875;BME280;17581;43.222;27.924;2024-03-02T01:54:14;100481.13;;;10.56;88.50
30875;BME280;17581;43.222;27.924;2024-03-02T01:56:40;100469.13;;;10.60;88.45
30875;BME280;17581;43.222;27.924;2024-03-02T01:59:06;100431.31;;;10.41;88.67
30875;BME280;17581;43.222;27.924;2024-03-02T02:01:31;100416.06;;;10.30;88.98
30875;BME280;17581;43.222;27.924;2024-03-02T02:03:57;100440.25;;;10.30;89.57
30875;BME280;17581;43.222;27.924;2024-03-02T02:06:22;100424.78;;;10.23;89.86
30875;BME280;17581;43.222;27.924;2024-03-02T02:08:48;100442.13;;;10.30;90.44
30875;BME280;17581;43.222;27.924;2024-03-02T02:11:16;100446.03;;;10.26;90.60
30875;BME280;17581;43.222;27.924;2024-03-02T02:13:42;100438.81;;;10.26;90.99
30875;BME280;17581;43.222;27.924;2024-03-02T02:16:08;100445.06;;;10.27;91.14
30875;BME280;17581;43.222;27.924;2024-03-02T02:18:34;100433.56;;;10.25;91.30
30875;BME280;17581;43.222;27.924;2024-03-02T02:21:00;100428.69;;;10.30;91.33
30875;BME280;17581;43.222;27.924;2024-03-02T02:23:25;100426.09;;;10.28;91.00
30875;BME280;17581;43.222;27.924;2024-03-02T02:25:51;100422.69;;;10.26;91.15
30875;BME280;17581;43.222;27.924;2024-03-02T02:28:16;100433.53;;;10.36;91.29
30875;BME280;17581;43.222;27.924;2024-03-02T02:30:42;100438.41;;;10.42;90.89
30875;BME280;17581;43.222;27.924;2024-03-02T02:33:08;100431.97;;;10.33;91.06
30875;BME280;17581;43.222;27.924;2024-03-02T02:35:34;100410.63;;;10.21;90.68
30875;BME280;17581;43.222;27.924;2024-03-02T02:38:00;100423.31;;;10.30;91.06
30875;BME280;17581;43.222;27.924;2024-03-02T02:40:26;100434.41;;;10.25;91.17
30875;BME280;17581;43.222;27.924;2024-03-02T02:42:51;100442.38;;;10.16;91.11
30875;BME280;17581;43.222;27.924;2024-03-02T02:45:17;100442.75;;;10.11;91.38
30875;BME280;17581;43.222;27.924;2024-03-02T02:47:43;100472.44;;;10.21;91.67
30875;BME280;17581;43.222;27.924;2024-03-02T02:50:10;100477.31;;;10.27;91.39
30875;BME280;17581;43.222;27.924;2024-03-02T02:52:39;100478.38;;;10.35;91.54
30875;BME280;17581;43.222;27.924;2024-03-02T02:55:06;100485.63;;;10.56;91.58
30875;BME280;17581;43.222;27.924;2024-03-02T02:57:33;100489.06;;;10.58;90.68
30875;BME280;17581;43.222;27.924;2024-03-02T03:00:06;100492.31;;;10.72;90.96
30875;BME280;17581;43.222;27.924;2024-03-02T03:02:36;100494.22;;;10.81;90.04
30875;BME280;17581;43.222;27.924;2024-03-02T03:05:02;100496.66;;;10.84;89.61
30875;BME280;17581;43.222;27.924;2024-03-02T03:07:28;100503.75;;;10.85;88.90
30875;BME280;17581;43.222;27.924;2024-03-02T03:09:53;100500.78;;;10.88;88.61
30875;BME280;17581;43.222;27.924;2024-03-02T03:12:19;100496.13;;;10.90;87.07
30875;BME280;17581;43.222;27.924;2024-03-02T03:14:44;100489.16;;;10.88;86.80
30875;BME280;17581;43.222;27.924;2024-03-02T03:17:10;100478.41;;;10.88;86.80
30875;BME280;17581;43.222;27.924;2024-03-02T03:19:35;100484.13;;;10.95;86.63
30875;BME280;17581;43.222;27.924;2024-03-02T03:22:01;100484.38;;;10.91;86.21
30875;BME280;17581;43.222;27.924;2024-03-02T03:24:26;100483.66;;;10.89;86.49
30875;BME280;17581;43.222;27.924;2024-03-02T03:26:52;100474.38;;;10.82;86.84
30875;BME280;17581;43.222;27.924;2024-03-02T03:29:17;100480.34;;;10.86;86.39
30875;BME280;17581;43.222;27.924;2024-03-02T03:31:43;100482.25;;;10.74;86.05
30875;BME280;17581;43.222;27.924;2024-03-02T03:34:08;100477.13;;;10.71;86.68
30875;BME280;17581;43.222;27.924;2024-03-02T03:36:33;100480.53;;;10.73;86.85
30875;BME280;17581;43.222;27.924;2024-03-02T03:38:59;100472.34;;;10.75;86.81
30875;BME280;17581;43.222;27.924;2024-03-02T03:41:27;100473.22;;;10.75;86.44
30875;BME280;17581;43.222;27.924;2024-03-02T03:43:52;100477.13;;;10.71;87.01
30875;BME280;17581;43.222;27.924;2024-03-02T03:46:18;100479.63;;;10.63;87.35
30875;BME280;17581;43.222;27.924;2024-03-02T03:48:43;100473.75;;;10.58;87.66
30875;BME280;17581;43.222;27.924;2024-03-02T03:51:08;100470.09;;;10.59;87.97
30875;BME280;17581;43.222;27.924;2024-03-02T03:53:34;100474.50;;;10.60;87.69
30875;BME280;17581;43.222;27.924;2024-03-02T03:55:59;100460.56;;;10.55;87.52
30875;BME280;17581;43.222;27.924;2024-03-02T03:58:24;100466.47;;;10.49;87.38
30875;BME280;17581;43.222;27.924;2024-03-02T04:00:50;100478.44;;;10.56;87.78
30875;BME280;17581;43.222;27.924;2024-03-02T04:03:15;100481.13;;;10.56;87.53
30875;BME280;17581;43.222;27.924;2024-03-02T04:05:41;100473.56;;;10.50;87.78
30875;BME280;17581;43.222;27.924;2024-03-02T04:08:06;100475.13;;;10.53;87.42
30875;BME280;17581;43.222;27.924;2024-03-02T04:10:32;100475.28;;;10.51;87.76
30875;BME280;17581;43.222;27.924;2024-03-02T04:12:57;100479.44;;;10.44;87.92
30875;BME280;17581;43.222;27.924;2024-03-02T04:15:22;100475.66;;;10.47;87.81
30875;BME280;17581;43.222;27.924;2024-03-02T04:17:49;100480.16;;;10.46;87.99
30875;BME280;17581;43.222;27.924;2024-03-02T04:20:14;100474.69;;;10.48;87.99
30875;BME280;17581;43.222;27.924;2024-03-02T04:22:39;100479.53;;;10.54;88.24
30875;BME280;17581;43.222;27.924;2024-03-02T04:25:05;100490.66;;;10.49;87.82
30875;BME280;17581;43.222;27.924;2024-03-02T04:27:32;100494.09;;;10.51;87.58
30875;BME280;17581;43.222;27.924;2024-03-02T04:29:58;100489.13;;;10.35;87.35
30875;BME280;17581;43.222;27.924;2024-03-02T04:32:26;100477.16;;;10.40;87.63
30875;BME280;17581;43.222;27.924;2024-03-02T04:34:51;100477.47;;;10.46;86.98
30875;BME280;17581;43.222;27.924;2024-03-02T04:37:17;100477.97;;;10.40;86.93
30875;BME280;17581;43.222;27.924;2024-03-02T04:39:42;100490.47;;;10.41;86.95
30875;BME280;17581;43.222;27.924;2024-03-02T04:42:07;100483.59;;;10.48;87.27
30875;BME280;17581;43.222;27.924;2024-03-02T04:44:33;100480.66;;;10.51;86.86
30875;BME280;17581;43.222;27.924;2024-03-02T04:46:58;100488.22;;;10.46;86.37
30875;BME280;17581;43.222;27.924;2024-03-02T04:49:24;100488.72;;;10.51;86.29
30875;BME280;17581;43.222;27.924;2024-03-02T04:51:49;100485.44;;;10.48;85.68
30875;BME280;17581;43.222;27.924;2024-03-02T04:54:15;100489.50;;;10.42;85.85
30875;BME280;17581;43.222;27.924;2024-03-02T04:56:40;100482.28;;;10.43;85.81
30875;BME280;17581;43.222;27.924;2024-03-02T04:59:10;100485.44;;;10.48;85.96
30875;BME280;17581;43.222;27.924;2024-03-02T05:01:36;100478.25;;;10.37;85.63
30875;BME280;17581;43.222;27.924;2024-03-02T05:04:01;100487.56;;;10.33;86.21
30875;BME280;17581;43.222;27.924;2024-03-02T05:06:27;100482.81;;;10.25;86.00
30875;BME280;17581;43.222;27.924;2024-03-02T05:08:52;100477.56;;;10.24;86.47
30875;BME280;17581;43.222;27.924;2024-03-02T05:11:17;100487.09;;;10.17;86.65
30875;BME280;17581;43.222;27.924;2024-03-02T05:14:01;100486.97;;;10.18;87.39
30875;BME280;17581;43.222;27.924;2024-03-02T05:16:27;100489.41;;;10.21;87.64
30875;BME280;17581;43.222;27.924;2024-03-02T05:18:52;100485.13;;;10.30;87.71
30875;BME280;17581;43.222;27.924;2024-03-02T05:21:18;100473.38;;;10.31;87.17
30875;BME280;17581;43.222;27.924;2024-03-02T05:23:43;100485.94;;;10.30;87.18
30875;BME280;17581;43.222;27.924;2024-03-02T05:26:09;100482.44;;;10.30;87.49
30875;BME280;17581;43.222;27.924;2024-03-02T05:28:38;100485.59;;;10.35;86.96
30875;BME280;17581;43.222;27.924;2024-03-02T05:31:03;100477.06;;;10.30;86.75
30875;BME280;17581;43.222;27.924;2024-03-02T05:33:29;100486.09;;;10.29;86.62
30875;BME280;17581;43.222;27.924;2024-03-02T05:35:57;100469.63;;;10.22;86.78
30875;BME280;17581;43.222;27.924;2024-03-02T05:38:22;100478.75;;;10.31;86.57
30875;BME280;17581;43.222;27.924;2024-03-02T05:40:48;100473.13;;;10.34;86.55
30875;BME280;17581;43.222;27.924;2024-03-02T05:43:13;100476.03;;;10.42;86.05
30875;BME280;17581;43.222;27.924;2024-03-02T05:45:39;100469.81;;;10.42;85.87
30875;BME280;17581;43.222;27.924;2024-03-02T05:48:06;100458.34;;;10.28;85.97
30875;BME280;17581;43.222;27.924;2024-03-02T05:50:32;100469.22;;;10.38;85.98
30875;BME280;17581;43.222;27.924;2024-03-02T05:52:58;100465.41;;;10.41;85.73
30875;BME280;17581;43.222;27.924;2024-03-02T05:55:24;100467.22;;;10.40;85.71
30875;BME280;17581;43.222;27.924;2024-03-02T05:57:50;100477.72;;;10.43;85.76
30875;BME280;17581;43.222;27.924;2024-03-02T06:00:35;100472.94;;;10.47;85.83
30875;BME280;17581;43.222;27.924;2024-03-02T06:03:00;100463.78;;;10.49;86.02
30875;BME280;17581;43.222;27.924;2024-03-02T06:05:26;100462.28;;;10.56;85.73
30875;BME280;17581;43.222;27.924;2024-03-02T06:07:51;100461.91;;;10.61;85.50
30875;BME280;17581;43.222;27.924;2024-03-02T06:10:17;100464.91;;;10.67;85.60
30875;BME280;17581;43.222;27.924;2024-03-02T06:12:43;100463.69;;;10.71;85.78
30875;BME280;17581;43.222;27.924;2024-03-02T06:15:09;100469.25;;;10.79;85.25
30875;BME280;17581;43.222;27.924;2024-03-02T06:17:35;100469.84;;;10.83;84.28
30875;BME280;17581;43.222;27.924;2024-03-02T06:20:01;100465.22;;;10.85;84.38
30875;BME280;17581;43.222;27.924;2024-03-02T06:22:26;100468.09;;;10.93;84.57
30875;BME280;17581;43.222;27.924;2024-03-02T06:24:51;100466.59;;;11.00;84.82
30875;BME280;17581;43.222;27.924;2024-03-02T06:27:17;100461.56;;;11.07;84.09
30875;BME280;17581;43.222;27.924;2024-03-02T06:29:42;100464.41;;;11.15;83.67
30875;BME280;17581;43.222;27.924;2024-03-02T06:32:08;100468.41;;;11.20;83.12
30875;BME280;17581;43.222;27.924;2024-03-02T06:34:33;100461.97;;;11.32;84.16
30875;BME280;17581;43.222;27.924;2024-03-02T06:36:59;100473.22;;;11.47;84.25
30875;BME280;17581;43.222;27.924;2024-03-02T06:39:24;100473.44;;;11.55;83.54
30875;BME280;17581;43.222;27.924;2024-03-02T06:41:51;100464.44;;;11.45;82.62
30875;BME280;17581;43.222;27.924;2024-03-02T06:44:16;100457.00;;;11.58;82.54
30875;BME280;17581;43.222;27.924;2024-03-02T06:46:42;100460.56;;;11.68;81.90
30875;BME280;17581;43.222;27.924;2024-03-02T06:49:07;100469.03;;;11.84;81.92
30875;BME280;17581;43.222;27.924;2024-03-02T06:51:34;100458.44;;;11.92;81.19
30875;BME280;17581;43.222;27.924;2024-03-02T06:53:59;100456.75;;;12.01;80.93
30875;BME280;17581;43.222;27.924;2024-03-02T06:56:25;100450.94;;;12.15;80.21
30875;BME280;17581;43.222;27.924;2024-03-02T06:58:51;100458.91;;;12.26;79.75
30875;BME280;17581;43.222;27.924;2024-03-02T07:01:17;100455.09;;;12.38;79.10
30875;BME280;17581;43.222;27.924;2024-03-02T07:03:42;100461.34;;;12.39;78.05
30875;BME280;17581;43.222;27.924;2024-03-02T07:06:09;100464.31;;;12.36;77.91
30875;BME280;17581;43.222;27.924;2024-03-02T07:08:34;100460.94;;;12.34;77.81
30875;BME280;17581;43.222;27.924;2024-03-02T07:11:00;100460.94;;;12.43;77.18
30875;BME280;17581;43.222;27.924;2024-03-02T07:13:27;100471.44;;;12.46;76.75
30875;BME280;17581;43.222;27.924;2024-03-02T07:16:05;100470.59;;;12.55;76.86
30875;BME280;17581;43.222;27.924;2024-03-02T07:18:46;100464.06;;;12.58;76.23
30875;BME280;17581;43.222;27.924;2024-03-02T07:21:16;100460.22;;;12.51;76.20
30875;BME280;17581;43.222;27.924;2024-03-02T07:23:42;100463.78;;;12.61;75.94
30875;BME280;17581;43.222;27.924;2024-03-02T07:26:07;100470.44;;;12.76;76.12
30875;BME280;17581;43.222;27.924;2024-03-02T07:28:33;100453.69;;;12.63;75.73
30875;BME280;17581;43.222;27.924;2024-03-02T07:31:03;100469.75;;;12.74;75.21
30875;BME280;17581;43.222;27.924;2024-03-02T07:33:33;100456.97;;;12.67;74.85
30875;BME280;17581;43.222;27.924;2024-03-02T07:35:59;100462.63;;;12.73;73.99
30875;BME280;17581;43.222;27.924;2024-03-02T07:38:26;100456.66;;;12.79;74.39
30875;BME280;17581;43.222;27.924;2024-03-02T07:40:52;100454.53;;;12.83;74.19
30875;BME280;17581;43.222;27.924;2024-03-02T07:43:18;100453.69;;;12.82;73.83
30875;BME280;17581;43.222;27.924;2024-03-02T07:45:45;100443.91;;;12.72;72.83
30875;BME280;17581;43.222;27.924;2024-03-02T07:48:10;100457.25;;;12.83;73.27
30875;BME280;17581;43.222;27.924;2024-03-02T07:50:36;100455.53;;;12.72;72.80
30875;BME280;17581;43.222;27.924;2024-03-02T07:53:03;100439.06;;;12.75;73.14
30875;BME280;17581;43.222;27.924;2024-03-02T07:55:29;100462.34;;;12.76;73.26
30875;BME280;17581;43.222;27.924;2024-03-02T07:57:55;100468.03;;;12.54;74.07
30875;BME280;17581;43.222;27.924;2024-03-02T08:00:22;100455.56;;;12.53;74.51
30875;BME280;17581;43.222;27.924;2024-03-02T08:02:47;100448.72;;;12.49;74.13
30875;BME280;17581;43.222;27.924;2024-03-02T08:05:13;100457.81;;;12.48;74.11
30875;BME280;17581;43.222;27.924;2024-03-02T08:07:39;100440.78;;;12.47;74.30
30875;BME280;17581;43.222;27.924;2024-03-02T08:10:06;100456.13;;;12.47;73.87
30875;BME280;17581;43.222;27.924;2024-03-02T08:12:32;100465.47;;;12.43;74.67
30875;BME280;17581;43.222;27.924;2024-03-02T08:14:57;100468.59;;;12.48;74.34
30875;BME280;17581;43.222;27.924;2024-03-02T08:17:23;100462.63;;;12.35;74.30
30875;BME280;17581;43.222;27.924;2024-03-02T08:19:48;100454.00;;;12.41;74.21
30875;BME280;17581;43.222;27.924;2024-03-02T08:22:15;100452.41;;;12.38;73.75
30875;BME280;17581;43.222;27.924;2024-03-02T08:24:40;100465.47;;;12.43;74.64
30875;BME280;17581;43.222;27.924;2024-03-02T08:27:06;100458.66;;;12.58;74.51
30875;BME280;17581;43.222;27.924;2024-03-02T08:29:31;100456.94;;;12.57;73.66
30875;BME280;17581;43.222;27.924;2024-03-02T08:31:57;100456.53;;;12.71;73.25
30875;BME280;17581;43.222;27.924;2024-03-02T08:34:22;100474.28;;;13.02;73.47
30875;BME280;17581;43.222;27.924;2024-03-02T08:36:48;100467.47;;;12.98;72.24
30875;BME280;17581;43.222;27.924;2024-03-02T08:39:14;100464.34;;;12.93;72.14
30875;BME280;17581;43.222;27.924;2024-03-02T08:41:46;100452.97;;;12.99;71.63
30875;BME280;17581;43.222;27.924;2024-03-02T08:44:12;100469.59;;;13.04;71.27
30875;BME280;17581;43.222;27.924;2024-03-02T08:46:41;100476.41;;;12.99;71.59
30875;BME280;17581;43.222;27.924;2024-03-02T08:49:06;100459.06;;;12.92;72.19
30875;BME280;17581;43.222;27.924;2024-03-02T08:51:32;100470.28;;;13.06;71.85
30875;BME280;17581;43.222;27.924;2024-03-02T08:53:58;100481.09;;;12.97;71.47
30875;BME280;17581;43.222;27.924;2024-03-02T08:56:24;100485.78;;;13.04;71.30
30875;BME280;17581;43.222;27.924;2024-03-02T08:58:51;100473.44;;;13.12;71.08
30875;BME280;17581;43.222;27.924;2024-03-02T09:01:17;100499.16;;;13.16;70.66
30875;BME280;17581;43.222;27.924;2024-03-02T09:03:43;100492.03;;;13.24;70.09
30875;BME280;17581;43.222;27.924;2024-03-02T09:06:10;100478.69;;;13.23;70.13
30875;BME280;17581;43.222;27.924;2024-03-02T09:08:35;100477.41;;;13.27;69.73
30875;BME280;17581;43.222;27.924;2024-03-02T09:11:02;100469.53;;;13.33;69.28
30875;BME280;17581;43.222;27.924;2024-03-02T09:13:28;100487.25;;;13.55;68.22
30875;BME280;17581;43.222;27.924;2024-03-02T09:15:54;100482.94;;;13.72;68.04
30875;BME280;17581;43.222;27.924;2024-03-02T09:18:20;100480.06;;;13.73;67.33
30875;BME280;17581;43.222;27.924;2024-03-02T09:20:45;100460.50;;;13.61;67.35
30875;BME280;17581;43.222;27.924;2024-03-02T09:23:11;100465.34;;;13.58;66.80
30875;BME280;17581;43.222;27.924;2024-03-02T09:25:37;100473.44;;;13.58;66.68
30875;BME280;17581;43.222;27.924;2024-03-02T09:28:02;100469.75;;;13.59;66.38
30875;BME280;17581;43.222;27.924;2024-03-02T09:30:28;100470.56;;;13.69;66.98
30875;BME280;17581;43.222;27.924;2024-03-02T09:32:54;100473.16;;;13.88;66.12
30875;BME280;17581;43.222;27.924;2024-03-02T09:35:19;100469.28;;;14.00;65.58
30875;BME280;17581;43.222;27.924;2024-03-02T09:37:45;100475.78;;;14.07;65.16
30875;BME280;17581;43.222;27.924;2024-03-02T09:40:10;100459.38;;;14.18;65.18
30875;BME280;17581;43.222;27.924;2024-03-02T09:42:36;100465.75;;;14.45;64.32
30875;BME280;17581;43.222;27.924;2024-03-02T09:45:02;100465.94;;;14.61;63.81
30875;BME280;17581;43.222;27.924;2024-03-02T09:47:28;100460.03;;;14.48;62.89
30875;BME280;17581;43.222;27.924;2024-03-02T09:49:53;100464.53;;;14.57;62.51
30875;BME280;17581;43.222;27.924;2024-03-02T09:52:22;100457.78;;;14.43;62.29
30875;BME280;17581;43.222;27.924;2024-03-02T09:54:47;100452.00;;;14.29;62.58
30875;BME280;17581;43.222;27.924;2024-03-02T09:57:14;100450.13;;;14.39;62.23
30875;BME280;17581;43.222;27.924;2024-03-02T09:59:39;100450.81;;;14.41;62.17
30875;BME280;17581;43.222;27.924;2024-03-02T10:02:05;100455.69;;;14.37;61.70
30875;BME280;17581;43.222;27.924;2024-03-02T10:04:32;100450.16;;;14.29;62.23
30875;BME280;17581;43.222;27.924;2024-03-02T10:07:13;100439.00;;;14.42;62.50
30875;BME280;17581;43.222;27.924;2024-03-02T10:09:39;100450.75;;;14.50;62.07
30875;BME280;17581;43.222;27.924;2024-03-02T10:12:06;100440.97;;;14.49;61.21
30875;BME280;17581;43.222;27.924;2024-03-02T10:14:32;100454.41;;;14.32;62.07
30875;BME280;17581;43.222;27.924;2024-03-02T10:17:06;100450.16;;;14.29;62.92
30875;BME280;17581;43.222;27.924;2024-03-02T10:19:32;100451.13;;;14.38;62.91
30875;BME280;17581;43.222;27.924;2024-03-02T10:22:03;100454.78;;;14.19;62.68
30875;BME280;17581;43.222;27.924;2024-03-02T10:24:43;100442.03;;;14.11;62.83
30875;BME280;17581;43.222;27.924;2024-03-02T10:27:23;100445.91;;;14.27;62.46
30875;BME280;17581;43.222;27.924;2024-03-02T10:29:49;100444.75;;;14.11;62.85
30875;BME280;17581;43.222;27.924;2024-03-02T10:32:15;100438.34;;;14.12;63.24
30875;BME280;17581;43.222;27.924;2024-03-02T10:34:42;100434.38;;;14.07;63.54
30875;BME280;17581;43.222;27.924;2024-03-02T10:37:08;100430.72;;;13.98;64.09
30875;BME280;17581;43.222;27.924;2024-03-02T10:39:37;100425.31;;;13.98;63.90
30875;BME280;17581;43.222;27.924;2024-03-02T10:42:05;100422.81;;;13.87;65.19
30875;BME280;17581;43.222;27.924;2024-03-02T10:44:31;100421.66;;;13.90;65.58
30875;BME280;17581;43.222;27.924;2024-03-02T10:47:00;100416.94;;;13.92;65.96
30875;BME280;17581;43.222;27.924;2024-03-02T10:49:27;100418.22;;;13.97;66.41
30875;BME280;17581;43.222;27.924;2024-03-02T10:51:54;100407.66;;;13.77;66.81
30875;BME280;17581;43.222;27.924;2024-03-02T10:54:19;100394.59;;;13.45;67.27
30875;BME280;17581;43.222;27.924;2024-03-02T10:56:51;100407.22;;;13.54;67.65
30875;BME280;17581;43.222;27.924;2024-03-02T10:59:27;100405.28;;;13.64;67.67
30875;BME280;17581;43.222;27.924;2024-03-02T11:01:58;100400.69;;;13.74;66.86
30875;BME280;17581;43.222;27.924;2024-03-02T11:04:25;100406.59;;;13.60;66.94
30875;BME280;17581;43.222;27.924;2024-03-02T11:06:52;100398.81;;;13.57;67.41
30875;BME280;17581;43.222;27.924;2024-03-02T11:09:22;100397.00;;;13.48;67.44
30875;BME280;17581;43.222;27.924;2024-03-02T11:12:23;100396.53;;;13.52;67.87
30875;BME280;17581;43.222;27.924;2024-03-02T11:14:53;100406.25;;;13.45;67.79
30875;BME280;17581;43.222;27.924;2024-03-02T11:17:21;100407.38;;;13.43;68.36
30875;BME280;17581;43.222;27.924;2024-03-02T11:19:47;100406.47;;;13.52;68.00
30875;BME280;17581;43.222;27.924;2024-03-02T11:22:13;100403.19;;;13.58;67.57
30875;BME280;17581;43.222;27.924;2024-03-02T11:24:47;100410.22;;;13.51;67.60
30875;BME280;17581;43.222;27.924;2024-03-02T11:27:13;100399.78;;;13.56;67.73
30875;BME280;17581;43.222;27.924;2024-03-02T11:32:21;100401.34;;;13.58;67.40
30875;BME280;17581;43.222;27.924;2024-03-02T11:34:50;100400.19;;;13.61;67.30
30875;BME280;17581;43.222;27.924;2024-03-02T11:37:17;100390.81;;;13.83;66.50
30875;BME280;17581;43.222;27.924;2024-03-02T11:39:44;100393.56;;;13.73;66.43
30875;BME280;17581;43.222;27.924;2024-03-02T11:42:11;100393.78;;;13.89;66.33
30875;BME280;17581;43.222;27.924;2024-03-02T11:44:41;100388.53;;;13.88;65.74
30875;BME280;17581;43.222;27.924;2024-03-02T11:47:08;100387.75;;;13.95;65.73
30875;BME280;17581;43.222;27.924;2024-03-02T11:52:13;100389.66;;;14.12;64.98
30875;BME280;17581;43.222;27.924;2024-03-02T11:54:41;100389.78;;;14.11;64.72
30875;BME280;17581;43.222;27.924;2024-03-02T11:57:15;100382.84;;;14.08;65.06
30875;BME280;17581;43.222;27.924;2024-03-02T11:59:41;100374.06;;;13.79;65.45
30875;BME280;17581;43.222;27.924;2024-03-02T12:02:06;100377.47;;;13.81;65.51
30875;BME280;17581;43.222;27.924;2024-03-02T12:04:38;100384.19;;;13.77;65.88
30875;BME280;17581;43.222;27.924;2024-03-02T12:07:03;100384.97;;;13.87;65.73
30875;BME280;17581;43.222;27.924;2024-03-02T12:09:29;100375.53;;;13.91;65.51
30875;BME280;17581;43.222;27.924;2024-03-02T12:12:10;100377.13;;;13.94;65.17
30875;BME280;17581;43.222;27.924;2024-03-02T12:14:37;100371.78;;;14.02;64.39
30875;BME280;17581;43.222;27.924;2024-03-02T12:17:04;100361.03;;;13.92;65.09
30875;BME280;17581;43.222;27.924;2024-03-02T12:19:30;100363.13;;;13.98;64.47
30875;BME280;17581;43.222;27.924;2024-03-02T12:21:57;100368.16;;;13.93;64.65
30875;BME280;17581;43.222;27.924;2024-03-02T12:24:23;100370.44;;;13.88;65.38
30875;BME280;17581;43.222;27.924;2024-03-02T12:26:50;100378.78;;;13.77;66.09
30875;BME280;17581;43.222;27.924;2024-03-02T12:29:16;100365.81;;;13.81;65.97
30875;BME280;17581;43.222;27.924;2024-03-02T12:31:43;100354.69;;;13.84;66.02
30875;BME280;17581;43.222;27.924;2024-03-02T12:34:13;100365.81;;;13.81;66.27
30875;BME280;17581;43.222;27.924;2024-03-02T12:36:40;100362.63;;;13.85;66.05
30875;BME280;17581;43.222;27.924;2024-03-02T12:39:07;100363.34;;;13.87;65.69
30875;BME280;17581;43.222;27.924;2024-03-02T12:41:36;100366.19;;;13.86;65.89
30875;BME280;17581;43.222;27.924;2024-03-02T12:44:02;100371.34;;;13.79;66.08
30875;BME280;17581;43.222;27.924;2024-03-02T12:46:28;100374.53;;;13.75;66.41